sensor_id;sensor_type;location;lat;lon;timestamp;pressure;altitude;pressure_sealevel;temperature;humidity
53619;BME280;68717;53.040;18.488;2023-04-01T00:00:01;99257.41;;;11.00;100.00
53619;BME280;68717;53.040;18.488;2023-04-01T00:00:14;99252.88;;;11.01;100.00
53619;BME280;68717;53.040;18.488;2023-04-01T00:00:47;99265.28;;;11.02;100.00
53619;BME280;68717;53.040;18.488;2023-04-01T00:01:01;99263.44;;;11.02;100.00
53619;BME280;68717;53.040;18.488;2023-04-01T00:01:15;99257.25;;;11.02;100.00
53619;BME280;68717;53.040;18.488;2023-04-01T00:01:29;99264.44;;;11.01;100.00
53619;BME280;68717;53.040;18.488;2023-04-01T00:01:41;99259.94;;;11.02;100.00
53619;BME280;68717;53.040;18.488;2023-04-01T00:01:54;99258.25;;;11.01;100.00
53619;BME280;68717;53.040;18.488;2023-04-01T00:02:08;99264.44;;;11.01;100.00
53619;BME280;68717;53.040;18.488;2023-04-01T00:02:20;99261.94;;;11.00;100.00
53619;BME280;68717;53.040;18.488;2023-04-01T00:02:33;99258.41;;;10.99;100.00
53619;BME280;68717;53.040;18.488;2023-04-01T00:02:46;99253.03;;;10.99;100.00
53619;BME280;68717;53.040;18.488;2023-04-01T00:03:00;99267.31;;;11.00;100.00
53619;BME280;68717;53.040;18.488;2023-04-01T00:03:13;99254.06;;;10.98;100.00
53619;BME280;68717;53.040;18.488;2023-04-01T00:03:26;99265.63;;;10.99;100.00
53619;BME280;68717;53.040;18.488;2023-04-01T00:03:40;99258.59;;;10.98;100.00
53619;BME280;68717;53.040;18.488;2023-04-01T00:03:53;99252.38;;;10.97;100.00
53619;BME280;68717;53.040;18.488;2023-04-01T00:04:08;99260.41;;;10.97;100.00
53619;BME280;68717;53.040;18.488;2023-04-01T00:04:21;99256.91;;;10.97;100.00
53619;BME280;68717;53.040;18.488;2023-04-01T00:04:34;99259.59;;;10.97;100.00
53619;BME280;68717;53.040;18.488;2023-04-01T00:04:46;99261.44;;;10.96;100.00
53619;BME280;68717;53.040;18.488;2023-04-01T00:05:01;99254.22;;;10.97;100.00
53619;BME280;68717;53.040;18.488;2023-04-01T00:05:15;99256.25;;;10.95;100.00
53619;BME280;68717;53.040;18.488;2023-04-01T00:05:28;99260.59;;;10.96;100.00
53619;BME280;68717;53.040;18.488;2023-04-01T00:05:42;99258.75;;;10.96;100.00
53619;BME280;68717;53.040;18.488;2023-04-01T00:05:55;99260.59;;;10.96;100.00
53619;BME280;68717;53.040;18.488;2023-04-01T00:06:09;99258.91;;;10.95;100.00
53619;BME280;68717;53.040;18.488;2023-04-01T00:06:25;99259.78;;;10.95;100.00
53619;BME280;68717;53.040;18.488;2023-04-01T00:06:38;99261.59;;;10.95;100.00
53619;BME280;68717;53.040;18.488;2023-04-01T00:06:51;99261.59;;;10.95;100.00
53619;BME280;68717;53.040;18.488;2023-04-01T00:07:04;99258.91;;;10.95;100.00
53619;BME280;68717;53.040;18.488;2023-04-01T00:07:16;99252.72;;;10.94;100.00
53619;BME280;68717;53.040;18.488;2023-04-01T00:07:29;99259.78;;;10.95;100.00
53619;BME280;68717;53.040;18.488;2023-04-01T00:07:42;99257.25;;;10.94;100.00
53619;BME280;68717;53.040;18.488;2023-04-01T00:07:55;99256.25;;;10.95;100.00
53619;BME280;68717;53.040;18.488;2023-04-01T00:08:07;99263.44;;;10.94;100.00
53619;BME280;68717;53.040;18.488;2023-04-01T00:08:23;99260.78;;;10.94;100.00
53619;BME280;68717;53.040;18.488;2023-04-01T00:08:36;99255.56;;;10.93;100.00
53619;BME280;68717;53.040;18.488;2023-04-01T00:08:49;99260.94;;;10.93;100.00
53619;BME280;68717;53.040;18.488;2023-04-01T00:09:02;99258.25;;;10.93;100.00
53619;BME280;68717;53.040;18.488;2023-04-01T00:09:17;99257.44;;;10.92;100.00
53619;BME280;68717;53.040;18.488;2023-04-01T00:09:29;99265.47;;;10.92;100.00
53619;BME280;68717;53.040;18.488;2023-04-01T00:09:42;99253.09;;;10.91;100.00
53619;BME280;68717;53.040;18.488;2023-04-01T00:09:56;99254.75;;;10.92;100.00
53619;BME280;68717;53.040;18.488;2023-04-01T00:10:10;99263.63;;;10.93;100.00
53619;BME280;68717;53.040;18.488;2023-04-01T00:10:23;99253.09;;;10.91;100.00
53619;BME280;68717;53.040;18.488;2023-04-01T00:10:36;99250.41;;;10.91;100.00
53619;BME280;68717;53.040;18.488;2023-04-01T00:10:48;99264.63;;;10.92;100.00
53619;BME280;68717;53.040;18.488;2023-04-01T00:11:01;99253.91;;;10.92;100.00
53619;BME280;68717;53.040;18.488;2023-04-01T00:11:15;99254.75;;;10.92;100.00
53619;BME280;68717;53.040;18.488;2023-04-01T00:11:28;99261.78;;;10.93;100.00
53619;BME280;68717;53.040;18.488;2023-04-01T00:11:41;99257.25;;;10.94;100.00
53619;BME280;68717;53.040;18.488;2023-04-01T00:11:54;99262.63;;;10.94;100.00
53619;BME280;68717;53.040;18.488;2023-04-01T00:12:07;99260.78;;;10.94;100.00
53619;BME280;68717;53.040;18.488;2023-04-01T00:12:19;99261.59;;;10.95;100.00
53619;BME280;68717;53.040;18.488;2023-04-01T00:12:32;99254.56;;;10.94;100.00
53619;BME280;68717;53.040;18.488;2023-04-01T00:12:45;99257.25;;;10.94;100.00
53619;BME280;68717;53.040;18.488;2023-04-01T00:12:57;99258.91;;;10.95;100.00
53619;BME280;68717;53.040;18.488;2023-04-01T00:13:12;99260.59;;;10.96;100.00
53619;BME280;68717;53.040;18.488;2023-04-01T00:13:25;99257.94;;;10.96;100.00
53619;BME280;68717;53.040;18.488;2023-04-01T00:13:38;99260.59;;;10.96;100.00
53619;BME280;68717;53.040;18.488;2023-04-01T00:13:51;99250.72;;;10.96;100.00
53619;BME280;68717;53.040;18.488;2023-04-01T00:14:04;99250.03;;;10.94;100.00
53619;BME280;68717;53.040;18.488;2023-04-01T00:14:17;99255.06;;;10.97;100.00
53619;BME280;68717;53.040;18.488;2023-04-01T00:14:30;99250.34;;;10.99;100.00
53619;BME280;68717;53.040;18.488;2023-04-01T00:14:42;99250.56;;;10.98;100.00
53619;BME280;68717;53.040;18.488;2023-04-01T00:14:56;99252.88;;;11.01;100.00
53619;BME280;68717;53.040;18.488;2023-04-01T00:15:11;99252.88;;;11.01;100.00
53619;BME280;68717;53.040;18.488;2023-04-01T00:15:23;99253.69;;;11.01;100.00
53619;BME280;68717;53.040;18.488;2023-04-01T00:15:37;99255.41;;;11.02;100.00
53619;BME280;68717;53.040;18.488;2023-04-01T00:15:49;99252.72;;;11.02;100.00
53619;BME280;68717;53.040;18.488;2023-04-01T00:16:03;99256.22;;;11.03;100.00
53619;BME280;68717;53.040;18.488;2023-04-01T00:16:31;99253.38;;;11.04;100.00
53619;BME280;68717;53.040;18.488;2023-04-01T00:16:45;99255.22;;;11.04;100.00
53619;BME280;68717;53.040;18.488;2023-04-01T00:16:58;99251.69;;;11.03;100.00
53619;BME280;68717;53.040;18.488;2023-04-01T00:17:11;99254.22;;;11.05;100.00
53619;BME280;68717;53.040;18.488;2023-04-01T00:17:23;99252.56;;;11.04;100.00
53619;BME280;68717;53.040;18.488;2023-04-01T00:17:36;99250.50;;;11.06;100.00
53619;BME280;68717;53.040;18.488;2023-04-01T00:17:49;99246.84;;;11.07;100.00
53619;BME280;68717;53.040;18.488;2023-04-01T00:18:02;99251.16;;;11.08;100.00
53619;BME280;68717;53.040;18.488;2023-04-01T00:18:15;99252.84;;;11.09;100.00
53619;BME280;68717;53.040;18.488;2023-04-01T00:18:29;99252.84;;;11.09;100.00
53619;BME280;68717;53.040;18.488;2023-04-01T00:18:42;99255.53;;;11.09;100.00
53619;BME280;68717;53.040;18.488;2023-04-01T00:18:55;99246.47;;;11.10;100.00
53619;BME280;68717;53.040;18.488;2023-04-01T00:19:07;99246.47;;;11.10;100.00
53619;BME280;68717;53.040;18.488;2023-04-01T00:19:20;99252.19;;;11.07;100.00
53619;BME280;68717;53.040;18.488;2023-04-01T00:19:33;99250.19;;;11.09;100.00
53619;BME280;68717;53.040;18.488;2023-04-01T00:19:45;99254.53;;;11.10;100.00
53619;BME280;68717;53.040;18.488;2023-04-01T00:20:01;99250.00;;;11.11;100.00
53619;BME280;68717;53.040;18.488;2023-04-01T00:20:15;99251.84;;;11.10;100.00
53619;BME280;68717;53.040;18.488;2023-04-01T00:20:28;99250.84;;;11.11;100.00
53619;BME280;68717;53.040;18.488;2023-04-01T00:20:43;99252.69;;;11.11;100.00
53619;BME280;68717;53.040;18.488;2023-04-01T00:20:56;99249.16;;;11.10;100.00
53619;BME280;68717;53.040;18.488;2023-04-01T00:21:09;99248.31;;;11.09;100.00
53619;BME280;68717;53.040;18.488;2023-04-01T00:21:22;99256.38;;;11.09;100.00
53619;BME280;68717;53.040;18.488;2023-04-01T00:21:35;99251.84;;;11.10;100.00
53619;BME280;68717;53.040;18.488;2023-04-01T00:21:49;99247.50;;;11.09;100.00
53619;BME280;68717;53.040;18.488;2023-04-01T00:22:01;99251.84;;;11.10;100.00
53619;BME280;68717;53.040;18.488;2023-04-01T00:22:14;99251.00;;;11.09;100.00
53619;BME280;68717;53.040;18.488;2023-04-01T00:22:27;99250.19;;;11.09;100.00
53619;BME280;68717;53.040;18.488;2023-04-01T00:22:39;99257.41;;;11.08;100.00
53619;BME280;68717;53.040;18.488;2023-04-01T00:22:53;99251.16;;;11.08;100.00
53619;BME280;68717;53.040;18.488;2023-04-01T00:23:06;99250.50;;;11.06;100.00
53619;BME280;68717;53.040;18.488;2023-04-01T00:23:19;99250.50;;;11.06;100.00
53619;BME280;68717;53.040;18.488;2023-04-01T00:23:32;99246.00;;;11.06;100.00
53619;BME280;68717;53.040;18.488;2023-04-01T00:23:45;99243.47;;;11.05;100.00
53619;BME280;68717;53.040;18.488;2023-04-01T00:23:57;99254.22;;;11.05;100.00
53619;BME280;68717;53.040;18.488;2023-04-01T00:24:11;99251.53;;;11.05;100.00
53619;BME280;68717;53.040;18.488;2023-04-01T00:24:24;99248.84;;;11.05;100.00
53619;BME280;68717;53.040;18.488;2023-04-01T00:24:37;99246.31;;;11.03;100.00
53619;BME280;68717;53.040;18.488;2023-04-01T00:24:50;99247.19;;;11.04;100.00
53619;BME280;68717;53.040;18.488;2023-04-01T00:25:03;99253.53;;;11.03;100.00
53619;BME280;68717;53.040;18.488;2023-04-01T00:25:16;99245.50;;;11.03;100.00
53619;BME280;68717;53.040;18.488;2023-04-01T00:25:29;99245.50;;;11.03;100.00
53619;BME280;68717;53.040;18.488;2023-04-01T00:25:43;99249.19;;;11.02;100.00
53619;BME280;68717;53.040;18.488;2023-04-01T00:26:01;99247.50;;;11.01;100.00
53619;BME280;68717;53.040;18.488;2023-04-01T00:26:14;99249.38;;;11.00;100.00
53619;BME280;68717;53.040;18.488;2023-04-01T00:26:30;99249.38;;;11.00;100.00
53619;BME280;68717;53.040;18.488;2023-04-01T00:26:42;99251.22;;;11.00;100.00
53619;BME280;68717;53.040;18.488;2023-04-01T00:26:56;99245.84;;;11.00;100.00
53619;BME280;68717;53.040;18.488;2023-04-01T00:27:09;99245.00;;;10.99;100.00
53619;BME280;68717;53.040;18.488;2023-04-01T00:27:22;99245.00;;;10.99;100.00
53619;BME280;68717;53.040;18.488;2023-04-01T00:27:35;99252.88;;;11.01;100.00
53619;BME280;68717;53.040;18.488;2023-04-01T00:27:47;99250.19;;;11.01;100.00
53619;BME280;68717;53.040;18.488;2023-04-01T00:28:01;99246.69;;;11.00;100.00
53619;BME280;68717;53.040;18.488;2023-04-01T00:28:17;99250.19;;;11.01;100.00
53619;BME280;68717;53.040;18.488;2023-04-01T00:28:31;99243.19;;;11.00;100.00
53619;BME280;68717;53.040;18.488;2023-04-01T00:28:47;99243.84;;;11.02;100.00
53619;BME280;68717;53.040;18.488;2023-04-01T00:29:00;99251.88;;;11.02;100.00
53619;BME280;68717;53.040;18.488;2023-04-01T00:29:13;99243.84;;;11.02;100.00
53619;BME280;68717;53.040;18.488;2023-04-01T00:29:26;99243.84;;;11.02;100.00
53619;BME280;68717;53.040;18.488;2023-04-01T00:29:41;99245.50;;;11.03;100.00
53619;BME280;68717;53.040;18.488;2023-04-01T00:29:54;99243.66;;;11.03;100.00
53619;BME280;68717;53.040;18.488;2023-04-01T00:30:08;99245.50;;;11.03;100.00
53619;BME280;68717;53.040;18.488;2023-04-01T00:30:22;99244.66;;;11.02;100.00
53619;BME280;68717;53.040;18.488;2023-04-01T00:30:35;99249.00;;;11.03;100.00
53619;BME280;68717;53.040;18.488;2023-04-01T00:30:49;99247.19;;;11.04;100.00
53619;BME280;68717;53.040;18.488;2023-04-01T00:31:05;99249.00;;;11.03;100.00
53619;BME280;68717;53.040;18.488;2023-04-01T00:31:18;99248.84;;;11.05;100.00
53619;BME280;68717;53.040;18.488;2023-04-01T00:31:31;99248.84;;;11.05;100.00
53619;BME280;68717;53.040;18.488;2023-04-01T00:31:45;99250.69;;;11.04;100.00
53619;BME280;68717;53.040;18.488;2023-04-01T00:31:58;99248.84;;;11.05;100.00
53619;BME280;68717;53.040;18.488;2023-04-01T00:32:11;99242.81;;;11.03;100.00
53619;BME280;68717;53.040;18.488;2023-04-01T00:32:24;99242.66;;;11.04;100.00
53619;BME280;68717;53.040;18.488;2023-04-01T00:32:37;99243.47;;;11.05;100.00
53619;BME280;68717;53.040;18.488;2023-04-01T00:32:51;99239.13;;;11.04;100.00
53619;BME280;68717;53.040;18.488;2023-04-01T00:33:04;99242.81;;;11.03;100.00
53619;BME280;68717;53.040;18.488;2023-04-01T00:33:17;99245.50;;;11.03;100.00
53619;BME280;68717;53.040;18.488;2023-04-01T00:33:31;99245.50;;;11.03;100.00
53619;BME280;68717;53.040;18.488;2023-04-01T00:33:43;99242.81;;;11.03;100.00
53619;BME280;68717;53.040;18.488;2023-04-01T00:33:56;99243.84;;;11.02;100.00
53619;BME280;68717;53.040;18.488;2023-04-01T00:34:09;99242.16;;;11.01;100.00
53619;BME280;68717;53.040;18.488;2023-04-01T00:34:21;99251.88;;;11.02;100.00
53619;BME280;68717;53.040;18.488;2023-04-01T00:34:34;99243.19;;;11.00;100.00
53619;BME280;68717;53.040;18.488;2023-04-01T00:34:50;99245.84;;;11.00;100.00
53619;BME280;68717;53.040;18.488;2023-04-01T00:35:04;99251.22;;;11.00;100.00
53619;BME280;68717;53.040;18.488;2023-04-01T00:35:17;99248.53;;;11.00;100.00
53619;BME280;68717;53.040;18.488;2023-04-01T00:35:30;99249.53;;;10.99;100.00
53619;BME280;68717;53.040;18.488;2023-04-01T00:35:45;99241.66;;;10.97;100.00
53619;BME280;68717;53.040;18.488;2023-04-01T00:36:05;99246.19;;;10.97;100.00
53619;BME280;68717;53.040;18.488;2023-04-01T00:36:20;99238.34;;;10.95;100.00
53619;BME280;68717;53.040;18.488;2023-04-01T00:36:34;99244.53;;;10.96;100.00
53619;BME280;68717;53.040;18.488;2023-04-01T00:36:48;99239.31;;;10.94;100.00
53619;BME280;68717;53.040;18.488;2023-04-01T00:37:00;99243.84;;;10.94;100.00
53619;BME280;68717;53.040;18.488;2023-04-01T00:37:13;99247.38;;;10.94;100.00
53619;BME280;68717;53.040;18.488;2023-04-01T00:37:26;99244.84;;;10.93;100.00
53619;BME280;68717;53.040;18.488;2023-04-01T00:37:39;99251.06;;;10.93;100.00
53619;BME280;68717;53.040;18.488;2023-04-01T00:37:51;99248.56;;;10.92;100.00
53619;BME280;68717;53.040;18.488;2023-04-01T00:38:04;99246.53;;;10.94;100.00
53619;BME280;68717;53.040;18.488;2023-04-01T00:38:18;99244.00;;;10.92;100.00
53619;BME280;68717;53.040;18.488;2023-04-01T00:38:32;99250.22;;;10.93;100.00
53619;BME280;68717;53.040;18.488;2023-04-01T00:38:45;99242.16;;;10.93;100.00
53619;BME280;68717;53.040;18.488;2023-04-01T00:38:58;99243.19;;;10.92;100.00
53619;BME280;68717;53.040;18.488;2023-04-01T00:39:11;99241.34;;;10.92;100.00
53619;BME280;68717;53.040;18.488;2023-04-01T00:39:24;99246.69;;;10.92;100.00
53619;BME280;68717;53.040;18.488;2023-04-01T00:39:36;99247.53;;;10.93;100.00
53619;BME280;68717;53.040;18.488;2023-04-01T00:39:50;99237.81;;;10.92;100.00
53619;BME280;68717;53.040;18.488;2023-04-01T00:40:04;99242.16;;;10.93;100.00
53619;BME280;68717;53.040;18.488;2023-04-01T00:40:24;99240.50;;;10.92;100.00
53619;BME280;68717;53.040;18.488;2023-04-01T00:40:40;99247.53;;;10.93;100.00
53619;BME280;68717;53.040;18.488;2023-04-01T00:40:57;99244.00;;;10.92;100.00
53619;BME280;68717;53.040;18.488;2023-04-01T00:41:13;99251.22;;;10.92;100.00
53619;BME280;68717;53.040;18.488;2023-04-01T00:41:27;99248.56;;;10.92;100.00
53619;BME280;68717;53.040;18.488;2023-04-01T00:41:40;99247.72;;;10.91;100.00
53619;BME280;68717;53.040;18.488;2023-04-01T00:41:53;99241.50;;;10.91;100.00
53619;BME280;68717;53.040;18.488;2023-04-01T00:42:06;99247.06;;;10.89;100.00
53619;BME280;68717;53.040;18.488;2023-04-01T00:42:18;99250.56;;;10.89;100.00
53619;BME280;68717;53.040;18.488;2023-04-01T00:42:31;99245.19;;;10.89;100.00
53619;BME280;68717;53.040;18.488;2023-04-01T00:42:44;99237.31;;;10.88;100.00
53619;BME280;68717;53.040;18.488;2023-04-01T00:42:57;99243.50;;;10.88;100.00
53619;BME280;68717;53.040;18.488;2023-04-01T00:43:12;99248.88;;;10.88;100.00
53619;BME280;68717;53.040;18.488;2023-04-01T00:43:27;99244.53;;;10.87;100.00
53619;BME280;68717;53.040;18.488;2023-04-01T00:43:40;99247.22;;;10.87;100.00
53619;BME280;68717;53.040;18.488;2023-04-01T00:44:11;99247.22;;;10.87;100.00
53619;BME280;68717;53.040;18.488;2023-04-01T00:44:29;99245.56;;;10.86;100.00
53619;BME280;68717;53.040;18.488;2023-04-01T00:44:45;99244.69;;;10.86;100.00
53619;BME280;68717;53.040;18.488;2023-04-01T00:45:28;99248.41;;;10.85;100.00
53619;BME280;68717;53.040;18.488;2023-04-01T00:45:42;99237.69;;;10.85;100.00
53619;BME280;68717;53.040;18.488;2023-04-01T00:45:56;99243.03;;;10.85;100.00
53619;BME280;68717;53.040;18.488;2023-04-01T00:46:10;99240.53;;;10.83;100.00
53619;BME280;68717;53.040;18.488;2023-04-01T00:46:23;99249.38;;;10.84;100.00
53619;BME280;68717;53.040;18.488;2023-04-01T00:46:35;99244.88;;;10.84;100.00
53619;BME280;68717;53.040;18.488;2023-04-01T00:46:49;99245.88;;;10.83;100.00
53619;BME280;68717;53.040;18.488;2023-04-01T00:47:02;99244.03;;;10.84;100.00
53619;BME280;68717;53.040;18.488;2023-04-01T00:47:15;99242.22;;;10.84;100.00
53619;BME280;68717;53.040;18.488;2023-04-01T00:47:27;99243.19;;;10.83;100.00
53619;BME280;68717;53.040;18.488;2023-04-01T00:47:41;99240.53;;;10.83;100.00
53619;BME280;68717;53.040;18.488;2023-04-01T00:47:54;99243.19;;;10.83;100.00
53619;BME280;68717;53.040;18.488;2023-04-01T00:48:11;99243.19;;;10.83;100.00
53619;BME280;68717;53.040;18.488;2023-04-01T00:48:28;99241.34;;;10.84;100.00
53619;BME280;68717;53.040;18.488;2023-04-01T00:48:45;99245.88;;;10.83;100.00
53619;BME280;68717;53.040;18.488;2023-04-01T00:48:58;99245.88;;;10.83;100.00
53619;BME280;68717;53.040;18.488;2023-04-01T00:49:14;99240.53;;;10.83;100.00
53619;BME280;68717;53.040;18.488;2023-04-01T00:49:30;99245.06;;;10.83;100.00
53619;BME280;68717;53.040;18.488;2023-04-01T00:49:47;99242.38;;;10.83;100.00
53619;BME280;68717;53.040;18.488;2023-04-01T00:50:01;99245.06;;;10.83;100.00
53619;BME280;68717;53.040;18.488;2023-04-01T00:50:15;99246.91;;;10.82;100.00
53619;BME280;68717;53.040;18.488;2023-04-01T00:50:28;99237.84;;;10.83;100.00
53619;BME280;68717;53.040;18.488;2023-04-01T00:50:45;99245.06;;;10.83;100.00
53619;BME280;68717;53.040;18.488;2023-04-01T00:51:03;99244.22;;;10.82;100.00
53619;BME280;68717;53.040;18.488;2023-04-01T00:51:20;99251.25;;;10.83;100.00
53619;BME280;68717;53.040;18.488;2023-04-01T00:51:34;99246.03;;;10.82;100.00
53619;BME280;68717;53.040;18.488;2023-04-01T00:51:50;99246.03;;;10.82;100.00
53619;BME280;68717;53.040;18.488;2023-04-01T00:52:05;99244.22;;;10.82;100.00
53619;BME280;68717;53.040;18.488;2023-04-01T00:52:23;99242.53;;;10.81;100.00
53619;BME280;68717;53.040;18.488;2023-04-01T00:52:37;99247.06;;;10.81;100.00
53619;BME280;68717;53.040;18.488;2023-04-01T00:52:50;99241.69;;;10.81;100.00
53619;BME280;68717;53.040;18.488;2023-04-01T00:53:03;99240.00;;;10.80;100.00
53619;BME280;68717;53.040;18.488;2023-04-01T00:53:19;99242.69;;;10.80;100.00
53619;BME280;68717;53.040;18.488;2023-04-01T00:53:34;99236.50;;;10.79;100.00
53619;BME280;68717;53.040;18.488;2023-04-01T00:53:51;99244.53;;;10.79;100.00
53619;BME280;68717;53.040;18.488;2023-04-01T00:54:05;99244.53;;;10.79;100.00
53619;BME280;68717;53.040;18.488;2023-04-01T00:54:20;99242.88;;;10.78;100.00
53619;BME280;68717;53.040;18.488;2023-04-01T00:54:34;99237.53;;;10.78;100.00
53619;BME280;68717;53.040;18.488;2023-04-01T00:54:51;99242.88;;;10.78;100.00
53619;BME280;68717;53.040;18.488;2023-04-01T00:55:07;99238.34;;;10.79;100.00
53619;BME280;68717;53.040;18.488;2023-04-01T00:55:23;99245.56;;;10.78;100.00
53619;BME280;68717;53.040;18.488;2023-04-01T00:55:41;99241.88;;;10.79;100.00
53619;BME280;68717;53.040;18.488;2023-04-01T00:56:00;99240.88;;;10.80;100.00
53619;BME280;68717;53.040;18.488;2023-04-01T00:56:17;99243.56;;;10.80;100.00
53619;BME280;68717;53.040;18.488;2023-04-01T00:56:33;99237.53;;;10.78;100.00
53619;BME280;68717;53.040;18.488;2023-04-01T00:56:50;99240.88;;;10.80;100.00
53619;BME280;68717;53.040;18.488;2023-04-01T00:57:10;99243.56;;;10.80;100.00
53619;BME280;68717;53.040;18.488;2023-04-01T00:57:29;99240.88;;;10.80;100.00
53619;BME280;68717;53.040;18.488;2023-04-01T00:57:45;99237.34;;;10.80;100.00
53619;BME280;68717;53.040;18.488;2023-04-01T00:57:59;99246.25;;;10.80;100.00
53619;BME280;68717;53.040;18.488;2023-04-01T00:58:17;99244.53;;;10.79;100.00
53619;BME280;68717;53.040;18.488;2023-04-01T00:58:33;99244.53;;;10.79;100.00
53619;BME280;68717;53.040;18.488;2023-04-01T00:58:51;99238.34;;;10.79;100.00
53619;BME280;68717;53.040;18.488;2023-04-01T00:59:11;99242.88;;;10.78;100.00
53619;BME280;68717;53.040;18.488;2023-04-01T00:59:26;99235.84;;;10.77;100.00
53619;BME280;68717;53.040;18.488;2023-04-01T00:59:43;99236.69;;;10.78;100.00
53619;BME280;68717;53.040;18.488;2023-04-01T00:59:56;99242.88;;;10.78;100.00
53619;BME280;68717;53.040;18.488;2023-04-01T01:00:11;99241.19;;;10.77;100.00
53619;BME280;68717;53.040;18.488;2023-04-01T01:00:26;99239.53;;;10.76;100.00
53619;BME280;68717;53.040;18.488;2023-04-01T01:00:40;99239.53;;;10.76;100.00
53619;BME280;68717;53.040;18.488;2023-04-01T01:00:53;99236.84;;;10.76;100.00
53619;BME280;68717;53.040;18.488;2023-04-01T01:01:08;99239.53;;;10.76;100.00
53619;BME280;68717;53.040;18.488;2023-04-01T01:01:22;99234.19;;;10.76;100.00
53619;BME280;68717;53.040;18.488;2023-04-01T01:01:36;99242.22;;;10.76;100.00
53619;BME280;68717;53.040;18.488;2023-04-01T01:01:49;99241.19;;;10.77;100.00
53619;BME280;68717;53.040;18.488;2023-04-01T01:02:05;99242.22;;;10.76;100.00
53619;BME280;68717;53.040;18.488;2023-04-01T01:02:19;99240.38;;;10.77;100.00
53619;BME280;68717;53.040;18.488;2023-04-01T01:02:33;99241.38;;;10.76;100.00
53619;BME280;68717;53.040;18.488;2023-04-01T01:02:49;99241.38;;;10.76;100.00
53619;BME280;68717;53.040;18.488;2023-04-01T01:03:03;99239.53;;;10.76;100.00
53619;BME280;68717;53.040;18.488;2023-04-01T01:03:15;99241.38;;;10.76;100.00
53619;BME280;68717;53.040;18.488;2023-04-01T01:03:29;99233.50;;;10.74;100.00
53619;BME280;68717;53.040;18.488;2023-04-01T01:03:43;99234.34;;;10.75;100.00
53619;BME280;68717;53.040;18.488;2023-04-01T01:03:56;99239.69;;;10.75;100.00
53619;BME280;68717;53.040;18.488;2023-04-01T01:04:21;99241.56;;;10.74;100.00
53619;BME280;68717;53.040;18.488;2023-04-01T01:04:35;99232.50;;;10.75;100.00
53619;BME280;68717;53.040;18.488;2023-04-01T01:04:48;99237.84;;;10.75;100.00
53619;BME280;68717;53.040;18.488;2023-04-01T01:05:00;99231.66;;;10.75;100.00
53619;BME280;68717;53.040;18.488;2023-04-01T01:05:15;99238.19;;;10.72;100.00
53619;BME280;68717;53.040;18.488;2023-04-01T01:05:36;99235.69;;;10.71;100.00
53619;BME280;68717;53.040;18.488;2023-04-01T01:06:27;99233.84;;;10.71;100.00
53619;BME280;68717;53.040;18.488;2023-04-01T01:06:50;99232.84;;;10.72;100.00
53619;BME280;68717;53.040;18.488;2023-04-01T01:07:13;99239.88;;;10.73;100.00
53619;BME280;68717;53.040;18.488;2023-04-01T01:07:36;99238.19;;;10.72;100.00
53619;BME280;68717;53.040;18.488;2023-04-01T01:07:59;99234.50;;;10.73;100.00
53619;BME280;68717;53.040;18.488;2023-04-01T01:08:23;99237.84;;;10.75;100.00
53619;BME280;68717;53.040;18.488;2023-04-01T01:09:34;99237.03;;;10.75;100.00
53619;BME280;68717;53.040;18.488;2023-04-01T01:09:58;99228.66;;;10.70;100.00
53619;BME280;68717;53.040;18.488;2023-04-01T01:10:17;99236.19;;;10.74;100.00
53619;BME280;68717;53.040;18.488;2023-04-01T01:10:33;99233.50;;;10.74;100.00
53619;BME280;68717;53.040;18.488;2023-04-01T01:10:49;99232.50;;;10.75;100.00
53619;BME280;68717;53.040;18.488;2023-04-01T01:11:03;99233.50;;;10.74;100.00
53619;BME280;68717;53.040;18.488;2023-04-01T01:11:22;99229.81;;;10.75;100.00
53619;BME280;68717;53.040;18.488;2023-04-01T01:11:42;99230.66;;;10.76;100.00
53619;BME280;68717;53.040;18.488;2023-04-01T01:12:03;99230.81;;;10.74;100.00
53619;BME280;68717;53.040;18.488;2023-04-01T01:12:20;99228.97;;;10.75;100.00
53619;BME280;68717;53.040;18.488;2023-04-01T01:12:37;99230.00;;;10.74;100.00
53619;BME280;68717;53.040;18.488;2023-04-01T01:12:57;99232.69;;;10.74;100.00
53619;BME280;68717;53.040;18.488;2023-04-01T01:13:17;99230.16;;;10.72;100.00
53619;BME280;68717;53.040;18.488;2023-04-01T01:13:37;99230.81;;;10.74;100.00
53619;BME280;68717;53.040;18.488;2023-04-01T01:13:58;99236.19;;;10.74;100.00
53619;BME280;68717;53.040;18.488;2023-04-01T01:14:26;99228.16;;;10.74;100.00
53619;BME280;68717;53.040;18.488;2023-04-01T01:14:51;99227.47;;;10.72;100.00
53619;BME280;68717;53.040;18.488;2023-04-01T01:15:11;99222.13;;;10.72;100.00
53619;BME280;68717;53.040;18.488;2023-04-01T01:15:31;99229.13;;;10.73;100.00
53619;BME280;68717;53.040;18.488;2023-04-01T01:15:47;99224.81;;;10.72;100.00
53619;BME280;68717;53.040;18.488;2023-04-01T01:16:06;99232.84;;;10.72;100.00
53619;BME280;68717;53.040;18.488;2023-04-01T01:16:26;99226.47;;;10.73;100.00
53619;BME280;68717;53.040;18.488;2023-04-01T01:16:43;99230.16;;;10.72;100.00
53619;BME280;68717;53.040;18.488;2023-04-01T01:17:02;99225.78;;;10.71;100.00
53619;BME280;68717;53.040;18.488;2023-04-01T01:17:26;99227.47;;;10.72;100.00
53619;BME280;68717;53.040;18.488;2023-04-01T01:17:52;99226.47;;;10.73;100.00
53619;BME280;68717;53.040;18.488;2023-04-01T01:18:13;99234.50;;;10.73;100.00
53619;BME280;68717;53.040;18.488;2023-04-01T01:18:35;99230.00;;;10.74;100.00